Saint James, Michigan
Current Conditions -  °F | °C
As of 3:55 PM on Sunday 21 Dec 2014 (Local Time) from KSJX Reporting Station
Haze Haze  
Wind Chill: 34°   Ceiling: 1100
Heat Index: 34°   Visibility: 5mi
Dew Point: 32°   Wind: 3mph
Humidity: 92%   Direction: 150°SSE
Pressure: 30.1"   Gusts: NA
Location:  45.6554°N, 85.5518°W
Report Text: KSJX 212055Z AUTO 15003KT 5SM BR OVC011 01/00 A3010 RMK AO2 T00120000
Loading
Personal Weather Stations






























Interactive Weather Map New forecast layout! Learn more

10-Day Weather Forecast

Advertisements
Track Severe Weather on mobile